Time;durP1;ratioP1;P1;durP2;ratioP2;P2;SDS_P1;SDS_P2;PMS_P1;PMS_P2;Temp;Humidity;BMP_temperature;BMP_pressure;BME280_temperature;BME280_humidity;BME280_pressure;Samples;Min_cycle;Max_cycle;Signal;HPM_P1;HPM_P2
2023/06/15 00:01:11;;;;;;;4.20;3.40;;;16.60;99.90;;;;;;4996087;28;20476;-58
2023/06/15 00:03:40;;;;;;;4.03;3.30;;;16.60;99.90;;;;;;4989535;28;20499;-60
2023/06/15 00:06:08;;;;;;;3.50;3.20;;;16.50;99.90;;;;;;4985651;28;20476;-57
2023/06/15 00:08:36;;;;;;;3.70;3.40;;;16.50;99.90;;;;;;4990704;28;20743;-58
2023/06/15 00:11:04;;;;;;;4.53;3.70;;;16.50;99.90;;;;;;4989718;28;20490;-57
2023/06/15 00:13:32;;;;;;;4.00;3.40;;;16.40;99.90;;;;;;4990564;28;20534;-58
2023/06/15 00:16:00;;;;;;;3.80;3.33;;;16.40;99.90;;;;;;4990966;28;20975;-58
2023/06/15 00:18:30;;;;;;;3.80;3.50;;;16.40;99.90;;;;;;4989608;28;20509;-58
2023/06/15 00:21:00;;;;;;;3.90;3.57;;;16.30;99.90;;;;;;4988787;28;20563;-58
2023/06/15 00:23:29;;;;;;;3.73;3.30;;;16.30;99.90;;;;;;4992985;28;20487;-57
2023/06/15 00:25:57;;;;;;;3.90;3.50;;;16.30;99.90;;;;;;4996956;28;20586;-58
2023/06/15 00:28:25;;;;;;;3.63;3.23;;;16.30;99.90;;;;;;4995463;28;20595;-58
2023/06/15 00:30:53;;;;;;;3.67;3.37;;;16.30;99.90;;;;;;4995102;28;20497;-58
2023/06/15 00:33:21;;;;;;;4.07;3.70;;;16.20;99.90;;;;;;5000978;28;20493;-57
2023/06/15 00:35:51;;;;;;;4.10;3.53;;;16.20;99.90;;;;;;5013872;28;20471;-58
2023/06/15 00:38:19;;;;;;;4.60;3.70;;;16.20;99.90;;;;;;5004193;28;20997;-58
2023/06/15 00:40:47;;;;;;;4.53;3.10;;;16.10;99.90;;;;;;5001288;28;20499;-58
2023/06/15 00:43:15;;;;;;;3.70;3.40;;;16.10;99.90;;;;;;4999076;28;20521;-57
2023/06/15 00:45:43;;;;;;;4.10;3.60;;;16.10;99.90;;;;;;4998366;28;20956;-58
2023/06/15 00:48:11;;;;;;;3.50;3.20;;;16.10;99.90;;;;;;4997622;28;20472;-58
2023/06/15 00:50:41;;;;;;;4.07;3.70;;;16.00;99.90;;;;;;4993462;28;20510;-58
2023/06/15 00:53:11;;;;;;;3.47;3.17;;;16.00;99.90;;;;;;4993796;28;20526;-58
2023/06/15 00:55:40;;;;;;;7.10;3.63;;;15.90;99.90;;;;;;4995880;28;20928;-58
2023/06/15 00:58:08;;;;;;;3.67;3.40;;;15.90;99.90;;;;;;4997961;28;21028;-58
2023/06/15 01:00:37;;;;;;;3.93;3.53;;;15.90;99.90;;;;;;4989070;28;20491;-58
2023/06/15 01:03:06;;;;;;;3.60;3.30;;;15.80;99.90;;;;;;4989236;28;20490;-58
2023/06/15 01:05:36;;;;;;;4.17;3.80;;;15.80;99.90;;;;;;4988528;28;20595;-59
2023/06/15 01:08:07;;;;;;;4.13;3.73;;;15.80;99.90;;;;;;4988945;28;20480;-57
2023/06/15 01:10:37;;;;;;;4.00;3.60;;;15.70;99.90;;;;;;4989024;28;20969;-58
2023/06/15 01:13:10;;;;;;;3.40;3.20;;;15.70;99.90;;;;;;4989820;28;20535;-57
2023/06/15 01:15:38;;;;;;;4.03;3.73;;;15.70;99.90;;;;;;4989664;28;20516;-58
2023/06/15 01:18:08;;;;;;;5.00;4.13;;;15.70;99.90;;;;;;4991418;28;20476;-58
2023/06/15 01:20:39;;;;;;;3.80;3.50;;;15.60;99.90;;;;;;4988799;28;20469;-58
2023/06/15 01:23:22;;;;;;;3.80;3.50;;;15.70;99.90;;;;;;4991457;28;20490;-58
2023/06/15 01:26:00;;;;;;;4.07;3.67;;;15.60;99.90;;;;;;4995317;28;20584;-57
2023/06/15 01:28:30;;;;;;;3.67;3.40;;;15.60;99.90;;;;;;4990305;28;20472;-58
2023/06/15 01:30:59;;;;;;;4.13;3.60;;;15.50;99.90;;;;;;4986243;28;20752;-58
2023/06/15 01:33:27;;;;;;;3.70;3.40;;;15.50;99.90;;;;;;4986638;28;20488;-58
2023/06/15 01:35:55;;;;;;;4.77;3.90;;;15.50;99.90;;;;;;4986494;28;20476;-57
2023/06/15 01:38:25;;;;;;;3.83;3.53;;;15.40;99.90;;;;;;4990225;28;20512;-58
2023/06/15 01:40:54;;;;;;;4.37;4.00;;;15.40;99.90;;;;;;4988331;28;20555;-57
2023/06/15 01:43:26;;;;;;;3.83;3.53;;;15.40;99.90;;;;;;4986021;28;20579;-57
2023/06/15 01:45:56;;;;;;;3.90;3.60;;;15.30;99.90;;;;;;4989836;28;20491;-58
2023/06/15 01:48:26;;;;;;;5.23;4.03;;;15.30;99.90;;;;;;4997713;28;20977;-58
2023/06/15 01:50:55;;;;;;;4.57;4.17;;;15.20;99.90;;;;;;4997449;28;20630;-57
2023/06/15 01:53:23;;;;;;;6.77;4.47;;;15.20;99.90;;;;;;4991481;28;20496;-58
2023/06/15 01:55:52;;;;;;;4.80;3.70;;;15.10;99.90;;;;;;5014524;28;20483;-56
2023/06/15 01:58:20;;;;;;;4.07;3.77;;;15.10;99.90;;;;;;5015524;28;20496;-57
2023/06/15 02:00:49;;;;;;;5.23;4.17;;;15.00;99.90;;;;;;4993774;28;20469;-58
2023/06/15 02:03:17;;;;;;;5.30;3.67;;;15.00;99.90;;;;;;4998287;28;20582;-58
2023/06/15 02:05:45;;;;;;;4.90;4.00;;;14.90;99.90;;;;;;4994627;28;20959;-60
2023/06/15 02:08:13;;;;;;;3.83;3.53;;;14.90;99.90;;;;;;4994115;28;20976;-58
2023/06/15 02:10:41;;;;;;;4.03;3.63;;;14.90;99.90;;;;;;4991385;28;21100;-58
2023/06/15 02:13:12;;;;;;;5.37;3.83;;;14.90;99.90;;;;;;4992612;28;20823;-58
2023/06/15 02:15:40;;;;;;;5.07;3.87;;;14.90;99.90;;;;;;4993409;28;20559;-57
2023/06/15 02:18:14;;;;;;;4.20;3.87;;;14.80;99.90;;;;;;4995468;28;21172;-58
2023/06/15 02:20:42;;;;;;;3.97;3.67;;;14.80;99.90;;;;;;4990388;28;20498;-57
2023/06/15 02:23:11;;;;;;;4.13;3.40;;;14.80;99.90;;;;;;4991850;28;20498;-58
2023/06/15 02:25:40;;;;;;;3.70;3.40;;;14.80;99.90;;;;;;4991186;28;20531;-58
2023/06/15 02:28:08;;;;;;;3.93;3.53;;;14.70;99.90;;;;;;4993141;28;20587;-58
2023/06/15 02:30:36;;;;;;;3.90;3.60;;;14.70;99.90;;;;;;4989545;28;20539;-57
2023/06/15 02:33:05;;;;;;;4.10;3.80;;;14.70;99.90;;;;;;4992071;28;20484;-58
2023/06/15 02:35:34;;;;;;;4.27;3.87;;;14.70;99.90;;;;;;4991494;28;20469;-58
2023/06/15 02:38:02;;;;;;;4.40;3.97;;;14.70;99.90;;;;;;5015535;28;20499;-57
2023/06/15 02:40:31;;;;;;;4.10;3.70;;;14.60;99.90;;;;;;5016116;28;20499;-58
2023/06/15 02:42:59;;;;;;;4.10;3.70;;;14.60;99.90;;;;;;4996288;28;20566;-58
2023/06/15 02:45:27;;;;;;;4.20;3.90;;;14.50;99.90;;;;;;4994163;28;20528;-57
2023/06/15 02:47:56;;;;;;;4.23;3.80;;;14.50;99.90;;;;;;4992486;28;20472;-58
2023/06/15 02:50:24;;;;;;;5.90;4.07;;;14.50;99.90;;;;;;4995420;28;20479;-58
2023/06/15 02:52:54;;;;;;;3.83;3.50;;;14.40;99.90;;;;;;4992204;28;20615;-57
2023/06/15 02:55:22;;;;;;;4.90;4.43;;;14.30;99.90;;;;;;4989212;28;20464;-57
2023/06/15 02:57:51;;;;;;;4.10;3.70;;;14.30;99.90;;;;;;4991550;28;21161;-58
2023/06/15 03:00:20;;;;;;;3.90;3.60;;;14.20;99.90;;;;;;4994601;28;20547;-58
2023/06/15 03:02:48;;;;;;;4.20;3.80;;;14.20;99.90;;;;;;4998029;28;20610;-58
2023/06/15 03:05:18;;;;;;;4.10;3.80;;;14.30;99.90;;;;;;4994927;28;20858;-57
2023/06/15 03:07:46;;;;;;;4.10;3.70;;;14.20;99.90;;;;;;4986517;28;20920;-58
2023/06/15 03:10:16;;;;;;;3.90;3.60;;;14.20;99.90;;;;;;4985814;28;20855;-59
2023/06/15 03:12:44;;;;;;;4.77;3.87;;;14.10;99.90;;;;;;4989311;28;20583;-58
2023/06/15 03:15:12;;;;;;;5.97;4.03;;;14.10;99.90;;;;;;4993064;28;20546;-57
2023/06/15 03:17:41;;;;;;;3.83;3.50;;;14.10;99.90;;;;;;4994828;28;20483;-58
2023/06/15 03:20:11;;;;;;;5.27;4.33;;;14.10;99.90;;;;;;4993357;28;20472;-58
2023/06/15 03:22:39;;;;;;;4.40;4.00;;;14.10;99.90;;;;;;4992976;28;20500;-58
2023/06/15 03:25:10;;;;;;;4.87;3.50;;;14.10;99.90;;;;;;4985437;28;20492;-58
2023/06/15 03:27:40;;;;;;;5.27;4.17;;;14.10;99.90;;;;;;4989492;28;20867;-57
2023/06/15 03:30:11;;;;;;;5.20;3.90;;;14.00;99.90;;;;;;4987764;28;20535;-58
2023/06/15 03:32:39;;;;;;;4.43;4.00;;;14.00;99.90;;;;;;4990262;28;20510;-58
2023/06/15 03:35:08;;;;;;;4.33;3.93;;;14.00;99.90;;;;;;4993290;28;20500;-57
2023/06/15 03:37:38;;;;;;;4.27;3.83;;;14.00;99.90;;;;;;4990346;28;20465;-58
2023/06/15 03:40:08;;;;;;;4.43;3.90;;;14.00;99.90;;;;;;4988788;28;20923;-57
2023/06/15 03:42:36;;;;;;;4.40;4.10;;;14.00;99.90;;;;;;4988683;28;20993;-58
2023/06/15 03:45:07;;;;;;;3.70;3.40;;;14.00;99.90;;;;;;4992654;28;20916;-57
2023/06/15 03:47:35;;;;;;;4.70;4.00;;;14.00;99.90;;;;;;4992378;28;20499;-57
2023/06/15 03:50:06;;;;;;;4.17;3.87;;;14.00;99.90;;;;;;4990454;28;20483;-58
2023/06/15 03:52:35;;;;;;;4.57;4.20;;;14.00;99.90;;;;;;4988278;28;20907;-57
2023/06/15 03:55:05;;;;;;;4.17;3.77;;;13.90;99.90;;;;;;4990024;28;20500;-57
2023/06/15 03:57:33;;;;;;;4.40;4.00;;;13.90;99.90;;;;;;4992158;28;20556;-58
2023/06/15 04:00:01;;;;;;;4.93;4.17;;;14.00;99.90;;;;;;4990254;28;20472;-57
2023/06/15 04:02:31;;;;;;;4.57;3.73;;;13.90;99.90;;;;;;4995937;28;20581;-58
2023/06/15 04:05:00;;;;;;;4.90;3.93;;;13.90;99.90;;;;;;5002891;28;21002;-58
2023/06/15 04:07:29;;;;;;;4.50;4.10;;;13.90;99.90;;;;;;5010132;28;20579;-57
2023/06/15 04:09:57;;;;;;;3.90;3.60;;;13.90;99.90;;;;;;4988664;28;20479;-57
2023/06/15 04:12:25;;;;;;;4.47;4.07;;;14.00;99.90;;;;;;4986128;28;20486;-58
2023/06/15 04:14:53;;;;;;;5.53;4.27;;;14.00;99.90;;;;;;4991344;28;20492;-58
2023/06/15 04:17:21;;;;;;;4.30;4.00;;;13.90;99.90;;;;;;4999318;28;21035;-57
2023/06/15 04:19:50;;;;;;;4.20;3.80;;;14.00;99.90;;;;;;4993613;28;20929;-58
2023/06/15 04:22:18;;;;;;;5.87;4.20;;;14.00;99.90;;;;;;4994192;28;20499;-58
2023/06/15 04:24:46;;;;;;;4.40;4.00;;;14.00;99.90;;;;;;4990446;28;20492;-58
2023/06/15 04:27:18;;;;;;;5.80;4.27;;;14.00;99.90;;;;;;4998962;28;20854;-58
2023/06/15 04:29:49;;;;;;;4.87;4.40;;;14.00;99.90;;;;;;4987842;28;20970;-58
2023/06/15 04:32:17;;;;;;;4.90;4.50;;;14.10;99.90;;;;;;4986293;28;20496;-58
2023/06/15 04:34:46;;;;;;;4.70;4.30;;;14.10;99.90;;;;;;4993091;28;20492;-57
2023/06/15 04:37:16;;;;;;;4.97;4.37;;;14.20;99.90;;;;;;4986769;28;20503;-58
2023/06/15 04:39:45;;;;;;;4.30;4.00;;;14.20;99.90;;;;;;4996919;28;20482;-57
2023/06/15 04:42:13;;;;;;;4.27;3.87;;;14.20;99.90;;;;;;5010358;28;20480;-56
2023/06/15 04:44:41;;;;;;;4.53;4.13;;;14.20;99.90;;;;;;4994694;28;20492;-58
2023/06/15 04:47:09;;;;;;;4.03;3.63;;;14.30;99.90;;;;;;4993621;28;20591;-58
2023/06/15 04:49:37;;;;;;;4.90;4.50;;;14.30;99.90;;;;;;4988544;28;20573;-57
2023/06/15 04:52:05;;;;;;;4.80;4.40;;;14.40;99.90;;;;;;4986548;28;20589;-58
2023/06/15 04:54:37;;;;;;;5.10;4.70;;;14.50;99.90;;;;;;4991158;28;20873;-57
2023/06/15 04:57:08;;;;;;;4.93;4.53;;;14.60;99.90;;;;;;4989823;28;20469;-58
2023/06/15 04:59:38;;;;;;;4.53;4.23;;;14.60;99.90;;;;;;4991373;28;20472;-58
2023/06/15 05:02:07;;;;;;;4.93;4.43;;;14.60;99.90;;;;;;4985059;28;20488;-58
2023/06/15 05:04:35;;;;;;;6.90;4.37;;;14.70;99.90;;;;;;4993988;28;20516;-57
2023/06/15 05:07:04;;;;;;;5.90;4.43;;;14.70;99.90;;;;;;4977418;28;20504;-58
2023/06/15 05:09:32;;;;;;;5.37;4.20;;;14.80;99.90;;;;;;4979236;28;20554;-58
2023/06/15 05:12:02;;;;;;;4.80;4.40;;;14.90;99.90;;;;;;4984399;28;21049;-58
2023/06/15 05:14:29;;;;;;;4.30;4.00;;;15.00;99.90;;;;;;4978103;28;20493;-59
2023/06/15 05:17:03;;;;;;;5.63;4.20;;;15.00;99.90;;;;;;4980368;28;20471;-57
2023/06/15 05:19:31;;;;;;;7.57;5.07;;;15.10;99.90;;;;;;4983520;28;20476;-58
2023/06/15 05:22:00;;;;;;;5.70;3.93;;;15.20;99.90;;;;;;4985634;28;20485;-58
2023/06/15 05:24:28;;;;;;;5.60;4.60;;;15.30;99.90;;;;;;4994404;28;20553;-58
2023/06/15 05:26:57;;;;;;;4.70;4.17;;;15.30;99.90;;;;;;4992471;28;20485;-58
2023/06/15 05:29:26;;;;;;;4.60;4.20;;;15.40;99.90;;;;;;4996554;28;20473;-58
2023/06/15 05:31:55;;;;;;;7.60;4.03;;;15.50;99.90;;;;;;4988765;28;20997;-57
2023/06/15 05:34:23;;;;;;;4.40;4.00;;;15.50;99.90;;;;;;4993465;28;20566;-59
2023/06/15 05:36:51;;;;;;;4.73;4.33;;;15.60;99.90;;;;;;4997480;28;20526;-58
2023/06/15 05:39:25;;;;;;;4.50;4.20;;;15.70;99.90;;;;;;4995462;28;20994;-58
2023/06/15 05:41:53;;;;;;;4.57;4.17;;;15.80;99.90;;;;;;4999636;28;20487;-58
2023/06/15 05:44:22;;;;;;;5.07;4.33;;;15.90;99.90;;;;;;4992408;28;21112;-59
2023/06/15 05:46:52;;;;;;;4.30;3.90;;;15.90;99.90;;;;;;4995563;28;20493;-58
2023/06/15 05:49:20;;;;;;;4.97;4.50;;;16.00;99.90;;;;;;4989594;28;20567;-58
2023/06/15 05:51:49;;;;;;;4.50;4.10;;;16.10;99.90;;;;;;4996036;28;20767;-58
2023/06/15 05:54:16;;;;;;;4.93;4.43;;;16.20;99.90;;;;;;4992478;28;20492;-59
2023/06/15 05:56:44;;;;;;;4.43;4.00;;;16.20;99.90;;;;;;4999460;28;20467;-58
2023/06/15 05:59:14;;;;;;;9.00;4.30;;;16.30;99.90;;;;;;4999943;28;20495;-57
2023/06/15 06:02:01;;;;;;;4.40;4.00;;;16.40;99.90;;;;;;4999140;28;21048;-57
2023/06/15 06:04:29;;;;;;;5.10;4.37;;;16.50;99.90;;;;;;5001439;28;20523;-57
2023/06/15 06:06:57;;;;;;;7.27;4.20;;;16.60;99.90;;;;;;4995109;28;20917;-57
2023/06/15 06:09:25;;;;;;;6.77;4.10;;;16.60;99.90;;;;;;4996958;28;20518;-57
2023/06/15 06:11:53;;;;;;;4.93;3.70;;;16.70;99.90;;;;;;4998588;28;21124;-58
2023/06/15 06:14:21;;;;;;;5.73;4.50;;;16.80;99.90;;;;;;5000633;28;20511;-58
2023/06/15 06:16:50;;;;;;;5.33;3.70;;;16.80;99.90;;;;;;4996813;28;20477;-57
2023/06/15 06:19:19;;;;;;;4.80;4.17;;;16.90;99.90;;;;;;4998437;28;20479;-58
2023/06/15 06:21:47;;;;;;;4.77;4.37;;;17.00;99.90;;;;;;4997920;28;20578;-58
2023/06/15 06:24:15;;;;;;;7.70;4.00;;;17.00;99.90;;;;;;4992001;28;20505;-58
2023/06/15 06:26:45;;;;;;;7.50;3.87;;;17.10;99.90;;;;;;5002350;28;20555;-58
2023/06/15 06:29:13;;;;;;;4.53;4.17;;;17.20;99.90;;;;;;5005757;28;21020;-59
2023/06/15 06:31:42;;;;;;;6.30;4.50;;;17.30;99.90;;;;;;5002742;28;20511;-58
2023/06/15 06:34:10;;;;;;;4.50;4.03;;;17.40;99.90;;;;;;5000406;28;20489;-57
2023/06/15 06:36:40;;;;;;;4.10;3.80;;;17.50;99.90;;;;;;4998954;28;20476;-57
2023/06/15 06:39:08;;;;;;;4.80;4.40;;;17.60;99.90;;;;;;4997390;28;20496;-58
2023/06/15 06:41:36;;;;;;;5.10;4.00;;;17.70;99.90;;;;;;4998319;28;20862;-59
2023/06/15 06:44:04;;;;;;;5.60;4.23;;;17.80;99.90;;;;;;4999032;28;21050;-58
2023/06/15 06:46:32;;;;;;;6.00;4.30;;;17.90;99.90;;;;;;5008885;28;20461;-58
2023/06/15 06:49:00;;;;;;;6.40;4.90;;;18.10;99.90;;;;;;5018400;28;20992;-57
2023/06/15 06:51:28;;;;;;;6.60;4.97;;;18.20;99.90;;;;;;5006117;28;20487;-58
2023/06/15 06:53:57;;;;;;;6.70;5.30;;;18.30;99.90;;;;;;4996666;28;20579;-57
2023/06/15 06:56:26;;;;;;;7.70;4.90;;;18.30;99.90;;;;;;4997343;28;20490;-57
2023/06/15 06:58:56;;;;;;;7.20;4.90;;;18.50;99.90;;;;;;4990737;28;20878;-57
2023/06/15 07:01:25;;;;;;;5.30;4.30;;;18.60;99.90;;;;;;4995245;28;20477;-58
2023/06/15 07:03:53;;;;;;;6.17;4.10;;;18.70;99.90;;;;;;4998142;28;20611;-57
2023/06/15 07:06:22;;;;;;;4.73;4.10;;;18.80;99.90;;;;;;4995196;28;20477;-57
2023/06/15 07:08:49;;;;;;;4.40;3.87;;;19.00;99.90;;;;;;4994159;28;21003;-57
2023/06/15 07:11:19;;;;;;;4.07;3.67;;;19.00;99.90;;;;;;4998803;28;20559;-57
2023/06/15 07:13:47;;;;;;;4.33;3.93;;;19.20;99.90;;;;;;4994208;28;21005;-57
2023/06/15 07:16:15;;;;;;;5.00;3.80;;;19.30;99.90;;;;;;4993779;28;20566;-58
2023/06/15 07:18:43;;;;;;;4.80;4.10;;;19.40;99.90;;;;;;4997931;28;20468;-58
2023/06/15 07:21:11;;;;;;;4.50;3.63;;;19.60;99.90;;;;;;4998069;28;20586;-58
2023/06/15 07:23:39;;;;;;;4.20;3.80;;;19.80;99.90;;;;;;4993923;28;20575;-58
2023/06/15 07:26:22;;;;;;;4.27;3.47;;;19.90;99.90;;;;;;4995922;28;20484;-57
2023/06/15 07:28:50;;;;;;;5.47;4.00;;;20.00;99.90;;;;;;5003885;28;20497;-58
2023/06/15 07:31:18;;;;;;;5.80;3.90;;;20.10;99.90;;;;;;5004169;28;20497;-57
2023/06/15 07:33:46;;;;;;;4.20;3.80;;;20.20;99.90;;;;;;5002975;28;20947;-58
2023/06/15 07:36:14;;;;;;;6.43;3.53;;;20.30;99.90;;;;;;4994948;28;20468;-58
2023/06/15 07:38:42;;;;;;;5.97;3.40;;;20.30;99.90;;;;;;4994985;28;21139;-58
2023/06/15 07:41:10;;;;;;;4.63;3.30;;;20.40;99.90;;;;;;4996541;28;23894;-62
2023/06/15 07:43:39;;;;;;;5.17;3.63;;;20.50;99.90;;;;;;5017726;28;20516;-57
2023/06/15 07:46:07;;;;;;;6.50;3.80;;;20.60;99.90;;;;;;5013708;28;20637;-58
2023/06/15 07:48:38;;;;;;;3.80;3.40;;;20.60;99.90;;;;;;5002485;28;20493;-58
2023/06/15 07:51:06;;;;;;;5.40;3.40;;;20.70;99.90;;;;;;4997453;28;20631;-58
2023/06/15 07:53:34;;;;;;;4.53;3.63;;;20.80;99.90;;;;;;4998190;28;20875;-58
2023/06/15 07:56:02;;;;;;;4.93;3.53;;;20.90;99.90;;;;;;4995127;28;20476;-58
2023/06/15 07:58:33;;;;;;;3.63;3.30;;;20.90;99.90;;;;;;4999708;28;21027;-58
2023/06/15 08:01:05;;;;;;;7.90;3.40;;;21.00;99.90;;;;;;4999974;28;20860;-58
2023/06/15 08:03:33;;;;;;;3.90;3.50;;;21.00;99.90;;;;;;4995771;28;20582;-58
2023/06/15 08:06:01;;;;;;;3.73;3.43;;;21.00;99.90;;;;;;4994354;28;20859;-58
2023/06/15 08:08:29;;;;;;;5.13;3.37;;;21.00;99.90;;;;;;4996678;28;20577;-58
2023/06/15 08:10:57;;;;;;;7.40;3.60;;;21.00;99.90;;;;;;4993224;28;20558;-58
2023/06/15 08:13:25;;;;;;;3.70;3.20;;;21.10;99.90;;;;;;4999395;28;21044;-58
2023/06/15 08:15:54;;;;;;;8.43;3.80;;;21.20;99.90;;;;;;4996930;28;20849;-58
2023/06/15 08:18:23;;;;;;;5.30;3.43;;;21.40;99.90;;;;;;4993696;28;20563;-58
2023/06/15 08:20:51;;;;;;;3.83;3.43;;;21.50;99.80;;;;;;4994572;28;20847;-58
2023/06/15 08:23:19;;;;;;;3.67;3.33;;;21.60;94.80;;;;;;4992570;28;20575;-59
2023/06/15 08:25:47;;;;;;;4.63;3.40;;;21.70;96.10;;;;;;4995478;28;20472;-58
2023/06/15 08:28:15;;;;;;;4.43;3.60;;;21.90;94.10;;;;;;4998676;28;20996;-58
2023/06/15 08:30:43;;;;;;;3.43;3.10;;;22.00;90.10;;;;;;4994903;28;21044;-58
2023/06/15 08:33:11;;;;;;;3.20;3.00;;;22.20;85.70;;;;;;4998995;28;20495;-58
2023/06/15 08:35:41;;;;;;;6.63;3.40;;;22.30;86.70;;;;;;4994143;28;21188;-58
2023/06/15 08:38:09;;;;;;;4.00;3.43;;;22.40;79.60;;;;;;4999489;28;20482;-59
2023/06/15 08:40:37;;;;;;;7.43;3.50;;;22.50;76.30;;;;;;4996886;28;20476;-58
2023/06/15 08:43:08;;;;;;;3.97;3.27;;;22.50;71.30;;;;;;4998109;28;20492;-58
2023/06/15 08:45:40;;;;;;;5.30;3.47;;;22.50;74.30;;;;;;4992424;28;20890;-58
2023/06/15 08:48:11;;;;;;;3.60;3.30;;;22.70;71.70;;;;;;4991364;28;20487;-58
2023/06/15 08:50:41;;;;;;;6.40;3.03;;;22.80;66.10;;;;;;4992821;28;20761;-58
2023/06/15 08:53:14;;;;;;;3.20;2.90;;;23.00;70.00;;;;;;5017928;28;20995;-58
2023/06/15 08:55:43;;;;;;;4.30;3.33;;;23.20;64.10;;;;;;5009352;28;21028;-56
2023/06/15 08:58:11;;;;;;;3.43;3.13;;;23.30;60.80;;;;;;4998508;28;21048;-56
2023/06/15 09:00:39;;;;;;;80.17;10.13;;;23.40;58.60;;;;;;4995609;28;20552;-56
2023/06/15 09:03:09;;;;;;;38.63;6.60;;;23.40;61.80;;;;;;4995693;28;20914;-62
2023/06/15 09:05:37;;;;;;;18.30;5.30;;;23.50;59.10;;;;;;4998007;28;20479;-56
2023/06/15 09:08:07;;;;;;;5.87;3.30;;;23.50;57.90;;;;;;4998574;28;20496;-56
2023/06/15 09:10:38;;;;;;;4.43;3.40;;;23.50;55.70;;;;;;4998420;28;20523;-57
2023/06/15 09:13:06;;;;;;;6.20;4.07;;;23.40;54.80;;;;;;4996940;28;20507;-57
2023/06/15 09:15:36;;;;;;;4.30;3.40;;;23.40;55.90;;;;;;4995376;28;20472;-57
2023/06/15 09:18:04;;;;;;;4.40;3.20;;;23.40;54.80;;;;;;4997937;28;20495;-57
2023/06/15 09:20:38;;;;;;;3.80;3.27;;;23.30;55.30;;;;;;4992629;28;20459;-57
2023/06/15 09:23:11;;;;;;;14.83;3.60;;;23.20;54.60;;;;;;4995687;28;20591;-57
2023/06/15 09:25:41;;;;;;;4.63;3.40;;;23.10;57.60;;;;;;4998013;28;20509;-57
2023/06/15 09:28:09;;;;;;;3.90;3.33;;;23.00;56.50;;;;;;4989327;28;20479;-57
2023/06/15 09:30:38;;;;;;;4.00;3.70;;;23.00;58.20;;;;;;4995380;28;20528;-58
2023/06/15 09:33:12;;;;;;;3.43;3.17;;;22.80;60.50;;;;;;4996578;28;20488;-57
2023/06/15 09:35:56;;;;;;;3.50;3.20;;;22.70;63.20;;;;;;4997122;28;20480;-56
2023/06/15 09:38:27;;;;;;;3.70;3.37;;;22.60;64.80;;;;;;4996977;28;20571;-57
2023/06/15 09:40:55;;;;;;;4.50;3.20;;;22.60;65.70;;;;;;4994627;28;20559;-57
2023/06/15 09:43:23;;;;;;;3.50;3.13;;;22.60;70.40;;;;;;4994658;28;20565;-57
2023/06/15 09:45:52;;;;;;;3.90;3.50;;;22.60;73.30;;;;;;4996295;28;20475;-59
2023/06/15 09:48:20;;;;;;;4.30;3.90;;;22.70;71.90;;;;;;4995000;28;20563;-57
2023/06/15 09:50:52;;;;;;;3.63;3.33;;;22.80;75.20;;;;;;4993524;28;21013;-57
2023/06/15 09:53:20;;;;;;;5.37;3.33;;;23.00;73.30;;;;;;4997481;28;20551;-57
2023/06/15 09:55:50;;;;;;;4.33;3.50;;;23.20;70.20;;;;;;4997817;28;20560;-57
2023/06/15 09:58:18;;;;;;;4.63;3.33;;;23.40;67.40;;;;;;4994992;28;20607;-59
2023/06/15 10:00:47;;;;;;;3.73;3.43;;;23.60;62.50;;;;;;4996173;28;20533;-60
2023/06/15 10:03:19;;;;;;;6.20;3.30;;;23.80;57.70;;;;;;4994515;28;20690;-58
2023/06/15 10:05:51;;;;;;;4.30;3.17;;;23.90;57.70;;;;;;4997506;28;20554;-57
2023/06/15 10:08:20;;;;;;;4.57;3.20;;;24.00;56.40;;;;;;4996972;28;20508;-58
2023/06/15 10:10:52;;;;;;;3.83;3.27;;;24.20;53.90;;;;;;4998748;28;20496;-57
2023/06/15 10:13:26;;;;;;;3.70;3.40;;;24.20;50.60;;;;;;4999533;28;20492;-57
2023/06/15 10:15:57;;;;;;;4.70;3.43;;;24.20;50.20;;;;;;4993750;28;20554;-57
2023/06/15 10:18:26;;;;;;;3.43;3.13;;;24.20;47.90;;;;;;4998305;28;22026;-57
2023/06/15 10:20:57;;;;;;;5.27;3.50;;;24.10;49.50;;;;;;4999513;28;20478;-57
2023/06/15 10:23:26;;;;;;;3.50;3.30;;;24.10;52.50;;;;;;5000150;28;20488;-58
2023/06/15 10:26:10;;;;;;;4.77;3.03;;;24.10;50.80;;;;;;4999122;28;20479;-61
2023/06/15 10:28:46;;;;;;;4.13;3.40;;;24.10;50.20;;;;;;5000075;28;20512;-58
2023/06/15 10:31:23;;;;;;;3.27;3.00;;;24.10;51.10;;;;;;4995728;28;20503;-57
2023/06/15 10:33:59;;;;;;;3.90;3.40;;;24.20;49.50;;;;;;5005143;28;20563;-56
2023/06/15 10:36:30;;;;;;;3.70;3.40;;;24.30;48.80;;;;;;5007149;28;20486;-58
2023/06/15 10:39:03;;;;;;;3.50;3.20;;;24.30;49.50;;;;;;4996675;28;21084;-57
2023/06/15 10:41:33;;;;;;;4.97;3.60;;;24.40;48.90;;;;;;4996913;28;20531;-58
2023/06/15 10:44:02;;;;;;;6.53;3.90;;;24.50;49.50;;;;;;4998136;28;20580;-57
2023/06/15 10:46:31;;;;;;;3.33;3.10;;;24.60;49.30;;;;;;5000820;28;20546;-57
2023/06/15 10:49:04;;;;;;;3.20;2.90;;;24.70;48.60;;;;;;4999608;28;20921;-57
2023/06/15 10:51:35;;;;;;;3.73;3.43;;;24.80;46.40;;;;;;4998916;28;20545;-57
2023/06/15 10:54:04;;;;;;;3.80;3.40;;;24.80;45.40;;;;;;4998830;28;21083;-58
2023/06/15 10:56:33;;;;;;;3.47;3.17;;;24.80;46.30;;;;;;4992534;28;20498;-58
2023/06/15 10:59:04;;;;;;;3.83;3.37;;;24.90;46.60;;;;;;4998874;28;20509;-57
2023/06/15 11:01:32;;;;;;;4.40;3.30;;;25.00;45.60;;;;;;4996562;28;20483;-57
2023/06/15 11:04:01;;;;;;;6.30;3.60;;;25.10;47.90;;;;;;4993391;28;20529;-57
2023/06/15 11:06:35;;;;;;;4.73;3.50;;;25.30;47.40;;;;;;5001508;28;20469;-57
2023/06/15 11:09:06;;;;;;;4.03;3.70;;;25.40;46.50;;;;;;4997097;28;20997;-57
2023/06/15 11:11:37;;;;;;;3.87;3.57;;;25.40;46.50;;;;;;4998348;28;20523;-58
2023/06/15 11:14:06;;;;;;;6.17;3.80;;;25.50;46.70;;;;;;4999193;28;20515;-57
2023/06/15 11:16:35;;;;;;;5.03;3.93;;;25.40;46.80;;;;;;5000558;28;20464;-58
2023/06/15 11:19:25;;;;;;;5.67;3.70;;;25.20;47.40;;;;;;4993410;28;20529;-57
2023/06/15 11:22:00;;;;;;;3.87;3.57;;;25.10;50.10;;;;;;4999532;28;21002;-58
2023/06/15 11:24:33;;;;;;;3.57;3.20;;;25.10;52.80;;;;;;4996788;28;20471;-57
2023/06/15 11:27:04;;;;;;;7.40;4.17;;;25.20;52.70;;;;;;4996966;28;20476;-57
2023/06/15 11:29:35;;;;;;;4.27;3.73;;;25.40;52.70;;;;;;5004263;28;20473;-56
2023/06/15 11:32:04;;;;;;;5.33;3.87;;;25.50;52.90;;;;;;4998711;28;20494;-57
2023/06/15 11:34:33;;;;;;;4.20;3.80;;;25.50;53.60;;;;;;5001149;28;20516;-57
2023/06/15 11:37:01;;;;;;;4.50;4.20;;;25.50;53.70;;;;;;4998548;28;20969;-57
2023/06/15 11:39:30;;;;;;;4.57;4.23;;;25.60;54.30;;;;;;4995484;28;20503;-57
2023/06/15 11:42:00;;;;;;;8.27;4.20;;;25.60;55.30;;;;;;4998405;28;20533;-58
2023/06/15 11:44:30;;;;;;;4.97;4.10;;;25.60;55.40;;;;;;5000821;28;20619;-58
2023/06/15 11:47:00;;;;;;;4.00;3.63;;;25.50;54.30;;;;;;5002693;28;20479;-58
2023/06/15 11:49:33;;;;;;;4.73;4.30;;;25.60;54.50;;;;;;4998357;28;20501;-58
2023/06/15 11:52:01;;;;;;;4.30;3.80;;;25.50;54.60;;;;;;4999378;28;20492;-58
2023/06/15 11:54:30;;;;;;;5.07;3.87;;;25.50;54.10;;;;;;4997204;28;20580;-58
2023/06/15 11:57:18;;;;;;;4.73;4.00;;;25.40;56.10;;;;;;4992332;28;20595;-57
2023/06/15 11:59:47;;;;;;;4.97;3.87;;;25.40;56.60;;;;;;4997542;28;20464;-57
2023/06/15 12:02:16;;;;;;;5.03;4.53;;;25.50;56.10;;;;;;4994120;28;20512;-58
2023/06/15 12:04:47;;;;;;;5.63;4.00;;;25.70;56.50;;;;;;4996533;28;20559;-57
2023/06/15 12:07:17;;;;;;;5.40;4.40;;;25.80;55.80;;;;;;4996102;28;20556;-57
2023/06/15 12:09:51;;;;;;;4.27;3.97;;;25.90;55.60;;;;;;4992677;28;20849;-58
2023/06/15 12:12:29;;;;;;;5.33;3.97;;;25.90;56.50;;;;;;4982638;28;20866;-58
2023/06/15 12:14:59;;;;;;;4.23;3.93;;;26.00;55.70;;;;;;4990523;28;20550;-58
2023/06/15 12:17:28;;;;;;;5.50;4.50;;;26.00;56.40;;;;;;4992720;28;20451;-58
2023/06/15 12:20:01;;;;;;;4.63;4.23;;;26.00;60.10;;;;;;4995048;28;20499;-58
2023/06/15 12:22:36;;;;;;;4.20;3.90;;;26.10;59.80;;;;;;4992612;28;20493;-58
2023/06/15 12:25:05;;;;;;;5.23;3.83;;;26.20;55.40;;;;;;4995828;28;20602;-58
2023/06/15 12:27:36;;;;;;;4.93;4.53;;;26.30;55.30;;;;;;4998177;28;20526;-58
2023/06/15 12:30:15;;;;;;;5.60;4.27;;;26.40;51.60;;;;;;4996744;28;21361;-58
2023/06/15 12:32:44;;;;;;;3.80;3.50;;;26.40;52.70;;;;;;4986186;28;20476;-58
2023/06/15 12:35:32;;;;;;;4.17;3.87;;;26.60;52.00;;;;;;4987966;28;20798;-58
2023/06/15 12:38:00;;;;;;;5.23;4.00;;;26.70;47.40;;;;;;4992106;28;20472;-58
2023/06/15 12:40:28;;;;;;;4.00;3.60;;;26.70;45.20;;;;;;4989727;28;20483;-57
2023/06/15 12:42:58;;;;;;;4.00;3.70;;;26.70;45.30;;;;;;4988113;28;21066;-57
2023/06/15 12:45:27;;;;;;;4.33;4.03;;;26.70;43.10;;;;;;4991413;28;20559;-57
2023/06/15 12:47:57;;;;;;;3.83;3.63;;;26.60;42.30;;;;;;4993114;28;20468;-57
2023/06/15 12:50:25;;;;;;;4.40;3.90;;;26.70;40.60;;;;;;4995743;28;20465;-57
2023/06/15 12:52:56;;;;;;;5.00;4.13;;;26.70;39.90;;;;;;4996580;28;20587;-57
2023/06/15 12:55:25;;;;;;;4.30;4.00;;;26.90;40.90;;;;;;4992099;28;20479;-57
2023/06/15 12:57:53;;;;;;;6.30;3.80;;;27.00;39.60;;;;;;4994450;28;20472;-57